Terminal Aerodrome Forecast
Issued by NWS Cleveland, OH

Home | Current Version | Previous Version | Text Only | Print | Product List | Glossary Off
Versions: 1 2 3 4 5 6 7 8 9 10 11 12 13 14 15 16

000
FTUS41 KCLE 091130
TAFCAK
TAF
KCAK 091130Z 0912/1012 26014KT 6SM -SN SCT008 OVC015
      TEMPO 0912/0916 3SM -SHSN
     FM100100 27010KT P6SM -SHSN SCT012 OVC025=

USA.gov is the U.S. government's official web portal to all federal, state and local government web resources and services.